Time,TemperatureF,DewpointF,PressureIn,WindDirection,WindDirectionDegrees,WindSpeedMPH,WindSpeedGustMPH,Humidity,HourlyPrecipIn,Conditions,Clouds,dailyrainin,SoftwareType,DateUTC
2013-11-04 00:23:00,54.0,41.0,29.92,South,180,9.0,21.0,61,0.00,,,0.00,,2013-11-04 06:23:00,
2013-11-04 00:32:00,54.0,41.0,29.92,South,180,9.0,21.0,61,0.00,,,0.00,,2013-11-04 06:32:00,
2013-11-04 00:42:00,54.0,41.0,29.92,South,180,9.0,21.0,61,0.00,,,0.00,,2013-11-04 06:42:00,
2013-11-04 00:52:00,54.0,41.0,29.92,South,180,9.0,21.0,61,0.00,,,0.00,,2013-11-04 06:52:00,
2013-11-04 01:01:00,54.0,41.0,29.92,South,180,9.0,21.0,61,0.00,,,0.00,,2013-11-04 07:01:00,
2013-11-04 02:02:00,52.0,43.0,29.91,SSW,194,7.0,16.0,72,0.03,,,0.03,,2013-11-04 08:02:00,
2013-11-04 02:21:00,52.0,43.0,29.91,SSW,194,7.0,16.0,72,0.03,,,0.03,,2013-11-04 08:21:00,
2013-11-04 02:32:00,52.0,43.0,29.91,SSW,194,7.0,16.0,72,0.03,,,0.03,,2013-11-04 08:32:00,
2013-11-04 02:42:00,52.0,43.0,29.91,SSW,194,7.0,16.0,72,0.03,,,0.03,,2013-11-04 08:42:00,
2013-11-04 02:52:00,52.0,43.0,29.91,SSW,194,7.0,16.0,72,0.03,,,0.03,,2013-11-04 08:52:00,
2013-11-04 04:02:00,49.0,43.0,29.89,SE,127,5.0,9.0,81,0.02,,,0.05,,2013-11-04 10:02:00,
2013-11-04 04:23:00,49.0,43.0,29.89,SE,127,5.0,9.0,81,0.02,,,0.05,,2013-11-04 10:23:00,
2013-11-04 04:33:00,49.0,43.0,29.89,SE,127,5.0,9.0,81,0.02,,,0.05,,2013-11-04 10:33:00,
2013-11-04 04:42:00,49.0,43.0,29.89,SE,127,5.0,9.0,81,0.02,,,0.05,,2013-11-04 10:42:00,
2013-11-04 04:52:00,49.0,43.0,29.89,SE,127,5.0,9.0,81,0.02,,,0.05,,2013-11-04 10:52:00,
2013-11-04 06:22:00,50.0,43.0,29.88,SE,143,7.0,13.0,77,0.00,,,0.06,,2013-11-04 12:22:00,
2013-11-04 06:32:00,50.0,43.0,29.88,SE,143,7.0,13.0,77,0.00,,,0.06,,2013-11-04 12:32:00,
2013-11-04 06:42:00,50.0,43.0,29.88,SE,143,7.0,13.0,77,0.00,,,0.06,,2013-11-04 12:42:00,
2013-11-04 06:52:00,50.0,43.0,29.88,SE,143,7.0,13.0,77,0.00,,,0.06,,2013-11-04 12:52:00,
2013-11-04 08:02:00,53.0,44.0,29.93,South,169,6.0,13.0,72,0.00,,,0.06,,2013-11-04 14:02:00,
2013-11-04 08:22:00,53.0,44.0,29.93,South,169,6.0,13.0,72,0.00,,,0.06,,2013-11-04 14:22:00,
2013-11-04 08:32:00,53.0,44.0,29.93,South,169,6.0,13.0,72,0.00,,,0.06,,2013-11-04 14:32:00,
2013-11-04 08:42:00,53.0,44.0,29.93,South,169,6.0,13.0,72,0.00,,,0.06,,2013-11-04 14:42:00,
2013-11-04 08:52:00,53.0,44.0,29.93,South,169,6.0,13.0,72,0.00,,,0.06,,2013-11-04 14:52:00,
2013-11-04 10:02:00,58.0,46.0,29.95,SW,218,10.0,21.0,65,0.00,,,0.06,,2013-11-04 16:02:00,
2013-11-04 10:23:00,58.0,46.0,29.95,SW,218,10.0,21.0,65,0.00,,,0.06,,2013-11-04 16:23:00,
2013-11-04 10:33:00,58.0,46.0,29.95,SW,218,10.0,21.0,65,0.00,,,0.06,,2013-11-04 16:33:00,
2013-11-04 10:43:00,58.0,46.0,29.95,SW,218,10.0,21.0,65,0.00,,,0.06,,2013-11-04 16:43:00,
2013-11-04 10:53:00,58.0,46.0,29.95,SW,218,10.0,21.0,65,0.00,,,0.06,,2013-11-04 16:53:00,
2013-11-04 12:23:00,59.0,48.0,29.96,SSW,207,9.0,18.0,66,0.00,,,0.06,,2013-11-04 18:23:00,
2013-11-04 12:32:00,59.0,48.0,29.96,SSW,207,9.0,18.0,66,0.00,,,0.06,,2013-11-04 18:32:00,
2013-11-04 12:42:00,59.0,48.0,29.96,SSW,207,9.0,18.0,66,0.00,,,0.06,,2013-11-04 18:42:00,
2013-11-04 12:52:00,59.0,48.0,29.96,SSW,207,9.0,18.0,66,0.00,,,0.06,,2013-11-04 18:52:00,
2013-11-04 13:01:00,59.0,48.0,29.96,SSW,207,9.0,18.0,66,0.00,,,0.06,,2013-11-04 19:01:00,
2013-11-04 14:02:00,59.0,48.0,29.97,South,181,7.0,13.0,66,0.00,,,0.06,,2013-11-04 20:02:00,
2013-11-04 14:22:00,59.0,48.0,29.97,South,181,7.0,13.0,66,0.00,,,0.06,,2013-11-04 20:22:00,
2013-11-04 14:32:00,59.0,48.0,29.97,South,181,7.0,13.0,66,0.00,,,0.06,,2013-11-04 20:32:00,
2013-11-04 14:42:00,59.0,48.0,29.97,South,181,7.0,13.0,66,0.00,,,0.06,,2013-11-04 20:42:00,
2013-11-04 14:52:00,59.0,48.0,29.97,South,181,7.0,13.0,66,0.00,,,0.06,,2013-11-04 20:52:00,
2013-11-04 16:02:00,60.0,49.0,30.00,South,172,5.0,11.0,68,0.00,,,0.06,,2013-11-04 22:02:00,
2013-11-04 16:23:00,60.0,49.0,30.00,South,172,5.0,11.0,68,0.00,,,0.06,,2013-11-04 22:23:00,
2013-11-04 16:33:00,60.0,49.0,30.00,South,172,5.0,11.0,68,0.00,,,0.06,,2013-11-04 22:33:00,
2013-11-04 16:43:00,60.0,49.0,30.00,South,172,5.0,11.0,68,0.00,,,0.06,,2013-11-04 22:43:00,
2013-11-04 16:53:00,60.0,49.0,30.00,South,172,5.0,11.0,68,0.00,,,0.06,,2013-11-04 22:53:00,
2013-11-04 18:02:00,59.0,50.0,30.03,SSE,158,3.0,5.0,72,0.00,,,0.06,,2013-11-05 00:02:00,
2013-11-04 18:22:00,59.0,50.0,30.03,SSE,158,3.0,5.0,72,0.00,,,0.06,,2013-11-05 00:22:00,
2013-11-04 18:32:00,59.0,50.0,30.03,SSE,158,3.0,5.0,72,0.00,,,0.06,,2013-11-05 00:32:00,
2013-11-04 18:42:00,59.0,50.0,30.03,SSE,158,3.0,5.0,72,0.00,,,0.06,,2013-11-05 00:42:00,
2013-11-04 18:52:00,59.0,50.0,30.03,SSE,158,3.0,5.0,72,0.00,,,0.06,,2013-11-05 00:52:00,
2013-11-04 20:02:00,58.0,50.0,30.06,SSE,158,1.0,4.0,75,0.00,,,0.06,,2013-11-05 02:02:00,
2013-11-04 20:22:00,58.0,50.0,30.06,SSE,158,1.0,4.0,75,0.00,,,0.06,,2013-11-05 02:22:00,
2013-11-04 20:32:00,58.0,50.0,30.06,SSE,158,1.0,4.0,75,0.00,,,0.06,,2013-11-05 02:32:00,
2013-11-04 20:42:00,58.0,50.0,30.06,SSE,158,1.0,4.0,75,0.00,,,0.06,,2013-11-05 02:42:00,
2013-11-04 20:52:00,58.0,50.0,30.06,SSE,158,1.0,4.0,75,0.00,,,0.06,,2013-11-05 02:52:00,
2013-11-04 22:02:00,57.0,51.0,30.08,SSW,203,3.0,8.0,79,0.00,,,0.06,,2013-11-05 04:02:00,
2013-11-04 22:23:00,57.0,51.0,30.08,SSW,203,3.0,8.0,79,0.00,,,0.06,,2013-11-05 04:23:00,
2013-11-04 22:34:00,57.0,51.0,30.08,SSW,203,3.0,8.0,79,0.00,,,0.06,,2013-11-05 04:34:00,
2013-11-04 22:43:00,57.0,51.0,30.08,SSW,203,3.0,8.0,79,0.00,,,0.06,,2013-11-05 04:43:00,
2013-11-04 22:53:00,57.0,51.0,30.08,SSW,203,3.0,8.0,79,0.00,,,0.06,,2013-11-05 04:53:00,